Time;durP1;ratioP1;P1;durP2;ratioP2;P2;SDS_P1;SDS_P2;PMS_P1;PMS_P2;Temp;Humidity;BMP_temperature;BMP_pressure;BME280_temperature;BME280_humidity;BME280_pressure;Samples;Min_cycle;Max_cycle;Signal;HPM_P1;HPM_P2
2022/11/06 00:00:44;;;;;;;10.57;4.72;;;;;;;10.38;70.75;101404.41;5070308;28;20075;-78
2022/11/06 00:03:10;;;;;;;9.00;4.90;;;;;;;10.40;70.65;101397.50;5071182;28;20043;-79
2022/11/06 00:08:33;;;;;;;6.68;4.20;;;;;;;10.38;70.83;101393.28;5071506;28;20113;-79
2022/11/06 00:10:58;;;;;;;10.18;4.45;;;;;;;10.35;71.07;101394.59;5071384;28;20025;-79
2022/11/06 00:13:26;;;;;;;9.68;5.35;;;;;;;10.36;70.78;101399.06;5053345;28;20040;-78
2022/11/06 00:15:52;;;;;;;8.18;4.03;;;;;;;10.38;70.53;101394.13;5067854;28;20436;-79
2022/11/06 00:18:18;;;;;;;11.05;4.47;;;;;;;10.37;70.56;101394.34;5051102;28;20113;-79
2022/11/06 00:20:43;;;;;;;14.90;4.22;;;;;;;10.35;70.48;101397.38;5030612;28;20469;-78
2022/11/06 00:23:09;;;;;;;12.80;4.40;;;;;;;10.31;70.61;101397.00;5031374;28;20091;-78
2022/11/06 00:25:34;;;;;;;9.98;3.90;;;;;;;10.28;70.48;101385.53;5031393;28;20478;-78
2022/11/06 00:27:59;;;;;;;10.98;4.40;;;;;;;10.23;70.76;101386.22;5030660;28;20483;-78
2022/11/06 00:30:25;;;;;;;14.48;4.32;;;;;;;10.22;70.89;101381.78;5064838;28;20052;-79
2022/11/06 00:32:50;;;;;;;7.70;4.03;;;;;;;10.20;70.74;101377.53;5070058;28;20032;-79
2022/11/06 00:35:18;;;;;;;9.73;4.00;;;;;;;10.17;71.00;101381.63;5056482;28;20036;-80
2022/11/06 00:37:46;;;;;;;9.05;4.00;;;;;;;10.13;71.07;101377.63;5047950;28;20046;-80
2022/11/06 00:40:11;;;;;;;8.18;4.07;;;;;;;10.14;70.99;101361.81;5050143;28;20021;-80
2022/11/06 00:42:37;;;;;;;10.48;4.13;;;;;;;10.07;71.20;101351.69;5050894;28;20055;-79
2022/11/06 00:45:03;;;;;;;11.00;4.20;;;;;;;10.09;71.23;101362.53;5063660;28;20645;-79
2022/11/06 00:47:28;;;;;;;11.35;3.78;;;;;;;10.11;71.05;101360.38;5049477;28;20074;-79
2022/11/06 00:49:54;;;;;;;9.45;4.10;;;;;;;10.11;71.14;101354.00;5051090;28;20033;-80
2022/11/06 00:52:19;;;;;;;8.88;3.60;;;;;;;10.14;70.80;101364.59;5051045;28;20078;-79
2022/11/06 00:54:44;;;;;;;9.85;3.67;;;;;;;10.16;70.96;101362.44;5042021;28;20099;-79
2022/11/06 00:57:10;;;;;;;9.38;3.78;;;;;;;10.12;70.97;101362.06;5050457;28;20037;-79
2022/11/06 00:59:35;;;;;;;8.43;3.75;;;;;;;10.13;70.98;101357.38;5062709;28;20051;-79
2022/11/06 01:02:00;;;;;;;12.18;3.85;;;;;;;10.09;70.92;101377.25;5070303;28;20033;-79
2022/11/06 01:04:25;;;;;;;8.55;3.55;;;;;;;10.11;71.06;101373.41;5031726;28;20033;-79
2022/11/06 01:06:53;;;;;;;10.90;3.78;;;;;;;10.15;71.10;101366.31;5031027;28;20084;-79
2022/11/06 01:09:24;;;;;;;10.43;3.55;;;;;;;10.12;71.08;101361.22;5034145;28;20029;-79
2022/11/06 01:11:55;;;;;;;9.07;3.75;;;;;;;10.14;70.81;101365.47;5038596;28;20040;-79
2022/11/06 01:14:22;;;;;;;10.85;3.53;;;;;;;10.09;70.87;101362.53;5049741;28;20025;-79
2022/11/06 01:16:48;;;;;;;10.85;3.80;;;;;;;10.04;71.34;101370.75;5053269;28;20029;-79
2022/11/06 01:19:15;;;;;;;10.52;4.00;;;;;;;10.05;71.38;101364.09;5053202;28;20044;-79
2022/11/06 01:21:46;;;;;;;12.55;3.53;;;;;;;10.04;71.28;101357.72;5054404;28;20055;-79
2022/11/06 01:24:15;;;;;;;10.02;3.40;;;;;;;10.06;71.31;101357.47;5053681;28;20036;-79
2022/11/06 01:26:42;;;;;;;8.05;3.50;;;;;;;10.04;71.41;101359.66;5053996;28;20040;-79
2022/11/06 01:29:13;;;;;;;7.72;3.30;;;;;;;10.06;71.04;101352.78;5065480;28;20051;-79
2022/11/06 01:31:39;;;;;;;8.90;3.67;;;;;;;9.98;71.55;101344.81;5055085;28;20021;-79
2022/11/06 01:34:05;;;;;;;13.25;3.30;;;;;;;9.96;71.44;101346.97;5056423;28;20033;-79
2022/11/06 01:36:31;;;;;;;8.55;3.45;;;;;;;9.96;71.82;101335.03;5050098;28;20443;-79
2022/11/06 01:39:08;;;;;;;10.15;3.20;;;;;;;10.03;71.43;101335.78;5053789;28;20028;-79
2022/11/06 01:42:00;;;;;;;8.77;3.03;;;;;;;10.08;71.48;101327.56;5055600;28;20028;-79
2022/11/06 01:44:34;;;;;;;10.68;3.22;;;;;;;10.06;71.51;101330.59;5033444;28;20045;-79
2022/11/06 01:47:01;;;;;;;8.88;3.25;;;;;;;10.08;71.34;101327.56;5036272;28;20060;-79
2022/11/06 01:49:29;;;;;;;12.05;3.88;;;;;;;10.10;71.30;101333.75;5037624;28;20041;-79
2022/11/06 01:52:08;;;;;;;5.85;2.78;;;;;;;10.12;71.16;101327.94;5043542;28;20101;-78
2022/11/06 01:54:35;;;;;;;6.00;3.08;;;;;;;10.10;71.21;101330.97;5042741;28;20030;-78
2022/11/06 01:57:03;;;;;;;8.82;3.60;;;;;;;10.11;71.43;101326.25;5038058;28;20497;-77
2022/11/06 01:59:33;;;;;;;8.63;3.60;;;;;;;10.08;71.37;101322.88;5078962;28;20040;-77
2022/11/06 02:01:58;;;;;;;8.75;3.20;;;;;;;10.10;71.39;101317.09;5084017;28;20025;-77
2022/11/06 02:04:39;;;;;;;8.98;3.22;;;;;;;10.13;71.51;101324.09;5078778;28;20375;-77
2022/11/06 02:07:05;;;;;;;10.80;3.35;;;;;;;10.15;71.22;101324.69;5053824;28;20040;-78
2022/11/06 02:09:33;;;;;;;8.20;2.85;;;;;;;10.15;71.21;101320.00;5041313;28;20030;-78
2022/11/06 02:12:22;;;;;;;11.98;3.50;;;;;;;10.17;71.10;101311.41;5038897;28;20075;-78
2022/11/06 02:15:05;;;;;;;9.88;3.50;;;;;;;10.19;71.30;101317.59;5054257;28;20025;-78
2022/11/06 02:18:10;;;;;;;9.10;2.55;;;;;;;10.24;71.22;101312.16;5037553;28;20037;-78
2022/11/06 02:21:07;;;;;;;10.70;2.75;;;;;;;10.26;71.27;101307.25;5032206;28;20029;-78
2022/11/06 02:24:07;;;;;;;7.53;3.20;;;;;;;10.31;70.99;101304.59;5040075;28;20044;-78
2022/11/06 02:26:51;;;;;;;8.82;3.25;;;;;;;10.30;70.93;101302.91;5050750;28;20519;-78
2022/11/06 02:29:21;;;;;;;10.75;3.33;;;;;;;10.25;71.22;101300.84;5046067;28;20450;-78
2022/11/06 02:31:51;;;;;;;7.10;2.72;;;;;;;10.23;71.01;101296.59;5053456;28;20040;-78
2022/11/06 02:34:18;;;;;;;7.45;3.22;;;;;;;10.24;70.98;101298.28;5053187;28;20031;-79
2022/11/06 02:36:53;;;;;;;9.85;3.03;;;;;;;10.24;71.08;101292.75;5053362;28;20040;-79
2022/11/06 02:39:23;;;;;;;10.25;3.25;;;;;;;10.24;71.02;101298.28;5053185;28;20021;-78
2022/11/06 02:41:52;;;;;;;9.43;2.92;;;;;;;10.24;70.77;101288.03;5052698;28;20166;-78
2022/11/06 02:44:21;;;;;;;8.90;2.92;;;;;;;10.24;71.07;101282.47;5040789;28;20024;-79
2022/11/06 02:46:53;;;;;;;6.32;2.80;;;;;;;10.19;70.90;101287.06;5048595;28;20363;-79
2022/11/06 02:49:29;;;;;;;10.05;3.10;;;;;;;10.16;71.31;101291.16;5036302;28;20025;-79
2022/11/06 02:52:10;;;;;;;9.70;2.63;;;;;;;10.13;70.98;101286.09;5043630;28;20039;-79
2022/11/06 02:54:39;;;;;;;8.77;3.20;;;;;;;10.09;71.56;101285.72;5048175;28;20040;-78
2022/11/06 02:57:09;;;;;;;12.68;3.25;;;;;;;10.11;71.53;101288.28;5054299;28;20029;-78
2022/11/06 02:59:53;;;;;;;6.68;2.65;;;;;;;10.12;71.47;101289.13;5052137;28;20025;-78
2022/11/06 03:02:26;;;;;;;7.28;2.70;;;;;;;10.13;71.45;101283.31;5050820;28;20029;-78
2022/11/06 03:04:57;;;;;;;8.93;3.10;;;;;;;10.12;71.54;101292.72;5037073;28;21330;-78
2022/11/06 03:07:30;;;;;;;9.07;2.72;;;;;;;10.14;71.55;101298.03;5067305;28;20032;-78
2022/11/06 03:09:56;;;;;;;9.43;2.83;;;;;;;10.16;71.60;101295.88;5048965;28;20025;-78
2022/11/06 03:12:26;;;;;;;8.15;3.00;;;;;;;10.15;71.75;101306.13;5048419;28;20033;-78
2022/11/06 03:15:02;;;;;;;12.77;3.05;;;;;;;10.12;71.69;101308.53;5037613;28;20029;-78
2022/11/06 03:17:49;;;;;;;8.43;2.85;;;;;;;10.12;71.85;101289.97;5036008;28;20037;-78
2022/11/06 03:20:26;;;;;;;8.18;2.53;;;;;;;10.13;71.68;101282.47;5033657;28;20512;-78
2022/11/06 03:23:04;;;;;;;10.90;2.95;;;;;;;10.15;72.20;101285.88;5054448;28;20029;-78
2022/11/06 03:25:46;;;;;;;6.95;3.05;;;;;;;10.19;71.55;101275.97;5064074;28;20516;-78
2022/11/06 03:28:37;;;;;;;6.82;2.80;;;;;;;10.23;71.84;101266.09;5035127;28;20025;-78
2022/11/06 03:31:11;;;;;;;8.10;2.80;;;;;;;10.20;71.62;101270.19;5049719;28;20029;-78
2022/11/06 03:33:46;;;;;;;8.82;3.10;;;;;;;10.21;71.36;101262.69;5043552;28;20030;-78
2022/11/06 03:36:15;;;;;;;6.68;2.88;;;;;;;10.15;71.87;101250.66;5042757;28;20049;-78
2022/11/06 03:38:47;;;;;;;11.18;3.20;;;;;;;10.17;71.77;101251.22;5031891;28;20041;-78
2022/11/06 03:41:29;;;;;;;8.30;2.80;;;;;;;10.17;72.01;101242.91;5036222;28;20060;-78
2022/11/06 03:43:59;;;;;;;8.65;3.10;;;;;;;10.13;71.46;101250.03;5038309;28;20035;-78
2022/11/06 03:46:25;;;;;;;9.38;2.42;;;;;;;10.10;71.97;101242.22;5032233;28;20033;-78
2022/11/06 03:49:01;;;;;;;7.88;3.17;;;;;;;10.13;71.99;101243.66;5035209;28;20091;-78
2022/11/06 03:51:37;;;;;;;11.25;2.88;;;;;;;10.14;71.93;101237.88;5042887;28;20119;-78
2022/11/06 03:54:08;;;;;;;6.97;2.70;;;;;;;10.13;72.10;101230.63;5046995;28;20029;-78
2022/11/06 03:56:49;;;;;;;9.98;3.35;;;;;;;10.14;71.67;101221.22;5049289;28;20029;-78
2022/11/06 03:59:21;;;;;;;8.20;2.63;;;;;;;10.12;71.99;101222.53;5038365;28;20048;-78
2022/11/06 04:01:48;;;;;;;10.30;3.43;;;;;;;10.12;71.84;101217.84;5044942;28;20037;-78
2022/11/06 04:04:32;;;;;;;6.70;2.58;;;;;;;10.11;72.30;101215.31;5033412;28;20028;-78
2022/11/06 04:07:13;;;;;;;6.00;2.70;;;;;;;10.12;72.23;101211.44;5034287;28;20030;-78
2022/11/06 04:15:18;;;;;;;6.78;2.55;;;;;;;10.09;72.30;101213.59;5037813;28;20089;-78
2022/11/06 04:17:43;;;;;;;9.02;2.88;;;;;;;10.08;72.58;101206.38;5053240;28;20028;-78
2022/11/06 04:21:20;;;;;;;5.60;2.45;;;;;;;10.14;72.58;101206.50;5047066;28;20102;-78
2022/11/06 04:23:14;;;;;;;7.10;3.13;;;;;;;10.14;72.57;101195.41;5043127;28;20052;-78
2022/11/06 04:29:01;;;;;;;5.35;2.78;;;;;;;10.13;72.75;101179.84;5034048;28;20052;-78
2022/11/06 04:31:39;;;;;;;7.28;2.65;;;;;;;10.15;72.88;101186.84;5050712;28;20032;-78
2022/11/06 04:34:19;;;;;;;6.85;3.10;;;;;;;10.15;72.77;101186.00;5049513;28;20033;-79
2022/11/06 04:36:53;;;;;;;7.80;2.70;;;;;;;10.16;72.44;101184.91;5070967;28;20082;-78
2022/11/06 04:39:30;;;;;;;8.20;3.17;;;;;;;10.13;73.00;101185.41;5054658;28;20033;-78
2022/11/06 04:42:03;;;;;;;8.45;2.90;;;;;;;10.10;72.96;101189.50;5051107;28;20041;-78
2022/11/06 04:44:31;;;;;;;10.88;3.00;;;;;;;10.11;72.86;101176.50;5053566;28;20033;-78
2022/11/06 04:47:07;;;;;;;7.65;2.75;;;;;;;10.13;72.80;101183.47;5053502;28;20028;-79
2022/11/06 04:49:36;;;;;;;9.05;2.67;;;;;;;10.13;72.94;101174.31;5055330;28;20025;-78
2022/11/06 04:52:05;;;;;;;7.10;2.65;;;;;;;10.15;72.97;101169.38;5053924;28;20051;-78
2022/11/06 04:54:31;;;;;;;7.95;2.75;;;;;;;10.15;72.80;101166.59;5052075;28;20052;-78
2022/11/06 04:57:01;;;;;;;5.95;2.80;;;;;;;10.16;72.92;101160.78;5053251;28;20058;-78
2022/11/06 04:59:35;;;;;;;6.63;2.45;;;;;;;10.17;72.92;101172.72;5053708;28;20025;-78
2022/11/06 05:02:01;;;;;;;6.88;3.03;;;;;;;10.16;72.96;101162.72;5038238;28;20033;-78
2022/11/06 05:04:26;;;;;;;6.18;2.63;;;;;;;10.18;72.73;101161.41;5039670;28;20086;-78
2022/11/06 05:06:51;;;;;;;5.85;3.10;;;;;;;10.21;72.81;101160.06;5074345;28;20036;-78
2022/11/06 05:09:17;;;;;;;9.57;3.00;;;;;;;10.20;73.30;101159.22;5072815;28;20028;-79
2022/11/06 05:11:42;;;;;;;6.55;2.97;;;;;;;10.21;72.99;101160.06;5063758;28;20036;-79
2022/11/06 05:14:07;;;;;;;7.47;2.58;;;;;;;10.18;72.93;101155.00;5033504;28;20406;-79
2022/11/06 05:16:33;;;;;;;3.72;2.42;;;;;;;10.19;72.90;101143.66;5033648;28;20428;-79
2022/11/06 05:18:58;;;;;;;10.52;2.60;;;;;;;10.19;72.98;101143.66;5037587;28;20025;-79
2022/11/06 05:24:07;;;;;;;6.60;2.60;;;;;;;10.21;72.81;101135.09;5073814;28;20386;-79
2022/11/06 05:26:33;;;;;;;7.50;2.83;;;;;;;10.22;72.81;101142.34;5074054;28;20029;-79
2022/11/06 05:28:58;;;;;;;9.18;3.20;;;;;;;10.20;73.37;101138.97;5066158;28;20029;-79
2022/11/06 05:31:24;;;;;;;6.63;2.60;;;;;;;10.18;72.99;101141.13;5052421;28;20029;-79
2022/11/06 05:33:50;;;;;;;10.30;2.78;;;;;;;10.14;73.35;101135.25;5053555;28;20033;-79
2022/11/06 05:36:15;;;;;;;12.35;3.15;;;;;;;10.16;73.09;101141.38;5035980;28;20041;-79
2022/11/06 05:38:40;;;;;;;6.85;3.15;;;;;;;10.11;73.36;101137.66;5034843;28;20021;-79
2022/11/06 05:41:06;;;;;;;7.43;2.47;;;;;;;10.09;73.31;101135.94;5053563;28;20028;-79
2022/11/06 05:43:31;;;;;;;9.40;2.95;;;;;;;10.06;73.61;101125.38;5052749;28;20020;-79
2022/11/06 05:45:57;;;;;;;9.63;3.05;;;;;;;10.07;73.43;101134.53;5052939;28;20099;-78
2022/11/06 05:48:22;;;;;;;6.63;2.53;;;;;;;10.08;73.65;101125.94;5049992;28;20580;-79
2022/11/06 05:50:48;;;;;;;8.02;2.70;;;;;;;10.12;73.33;101122.69;5070951;28;20028;-79
2022/11/06 05:53:13;;;;;;;9.40;2.67;;;;;;;10.12;73.40;101128.25;5036361;28;20037;-79
2022/11/06 05:55:38;;;;;;;9.48;3.13;;;;;;;10.08;73.46;101120.41;5032585;28;20075;-79
2022/11/06 05:58:04;;;;;;;7.47;2.90;;;;;;;10.13;73.41;101128.00;5032921;28;20030;-79
2022/11/06 06:00:29;;;;;;;7.80;2.70;;;;;;;10.14;73.27;101115.81;5033177;28;20426;-79
2022/11/06 06:02:54;;;;;;;6.70;2.47;;;;;;;10.14;73.76;101109.41;5036703;28;20452;-79
2022/11/06 06:05:19;;;;;;;7.63;2.60;;;;;;;10.13;73.28;101108.56;5052153;28;20025;-79
2022/11/06 06:07:45;;;;;;;5.53;2.50;;;;;;;10.11;73.27;101110.75;5045597;28;20534;-80
2022/11/06 06:10:10;;;;;;;4.00;2.30;;;;;;;10.09;73.34;101118.47;5034954;28;20035;-80
2022/11/06 06:12:35;;;;;;;6.88;2.30;;;;;;;10.08;73.35;101114.84;5032140;28;20025;-80
2022/11/06 06:15:01;;;;;;;9.88;2.80;;;;;;;10.08;73.52;101116.78;5046828;28;20025;-80
2022/11/06 06:17:26;;;;;;;10.57;2.92;;;;;;;10.05;73.52;101112.56;5071983;28;20025;-80
2022/11/06 06:19:52;;;;;;;7.95;3.03;;;;;;;10.00;73.81;101103.28;5066256;28;20467;-80
2022/11/06 06:22:17;;;;;;;5.30;2.85;;;;;;;10.03;73.42;101102.81;5072622;28;20036;-80
2022/11/06 06:24:42;;;;;;;7.63;2.58;;;;;;;9.98;73.61;101105.44;5071975;28;20112;-80
2022/11/06 06:27:08;;;;;;;7.30;2.30;;;;;;;9.99;73.65;101094.13;5038705;28;20037;-80
2022/11/06 06:29:33;;;;;;;7.20;2.47;;;;;;;9.98;73.54;101108.22;5046399;28;20486;-80
2022/11/06 06:31:59;;;;;;;4.47;2.13;;;;;;;9.97;73.30;101104.63;5067363;28;20554;-80
2022/11/06 06:34:24;;;;;;;6.40;2.22;;;;;;;10.01;73.46;101111.34;5061965;28;20036;-80
2022/11/06 06:36:51;;;;;;;5.70;2.25;;;;;;;9.99;73.22;101116.31;5066569;28;20044;-80
2022/11/06 06:39:18;;;;;;;6.88;2.38;;;;;;;10.00;73.54;101112.47;5071380;28;20107;-78
2022/11/06 06:41:43;;;;;;;7.68;2.30;;;;;;;10.01;73.28;101118.84;5064898;28;20056;-78
2022/11/06 06:44:08;;;;;;;8.32;2.80;;;;;;;10.02;73.40;101112.19;5038877;28;20510;-79
2022/11/06 06:46:34;;;;;;;10.32;2.50;;;;;;;10.04;73.35;101119.19;5051397;28;20056;-77
2022/11/06 06:48:59;;;;;;;7.38;2.55;;;;;;;10.01;73.07;101108.59;5053026;28;20114;-67
2022/11/06 06:51:24;;;;;;;7.13;2.63;;;;;;;10.00;73.08;101115.22;5048131;28;20043;-81
2022/11/06 06:53:50;;;;;;;6.00;2.55;;;;;;;10.00;73.66;101106.06;5032605;28;20473;-75
2022/11/06 06:56:15;;;;;;;5.85;2.60;;;;;;;9.98;73.71;101099.91;5047644;28;20136;-76
2022/11/06 06:58:44;;;;;;;7.82;2.53;;;;;;;10.00;73.68;101098.59;5042637;28;20024;-77
2022/11/06 07:01:09;;;;;;;6.20;2.17;;;;;;;10.00;73.59;101097.75;5036216;28;20043;-77
2022/11/06 07:03:38;;;;;;;9.10;2.33;;;;;;;10.01;73.65;101094.72;5036503;28;20025;-76
2022/11/06 07:06:17;;;;;;;8.60;2.83;;;;;;;10.05;73.53;101090.38;5042490;28;20037;-73
2022/11/06 07:08:42;;;;;;;5.68;2.60;;;;;;;10.11;73.15;101102.44;5038581;28;20029;-74
2022/11/06 07:11:09;;;;;;;9.25;2.53;;;;;;;10.11;73.52;101109.91;5032039;28;20425;-73
2022/11/06 07:13:34;;;;;;;5.78;2.45;;;;;;;10.08;73.31;101103.75;5031021;28;20120;-76
2022/11/06 07:16:08;;;;;;;7.07;2.45;;;;;;;10.07;73.72;101099.31;5046379;28;20120;-78
2022/11/06 07:18:35;;;;;;;7.30;2.60;;;;;;;10.06;73.86;101086.53;5049204;28;20126;-76
2022/11/06 07:21:03;;;;;;;5.30;2.47;;;;;;;10.07;73.87;101093.75;5043555;28;20041;-77
2022/11/06 07:23:29;;;;;;;8.20;2.92;;;;;;;10.07;73.89;101096.53;5031694;28;20068;-77
2022/11/06 07:25:56;;;;;;;7.30;2.50;;;;;;;10.10;73.85;101092.44;5031821;28;20029;-81
2022/11/06 07:28:21;;;;;;;5.57;2.88;;;;;;;10.11;73.82;101090.50;5044917;28;20039;-77
2022/11/06 07:30:46;;;;;;;5.22;2.88;;;;;;;10.15;73.95;101088.94;5038777;28;20030;-77
2022/11/06 07:33:12;;;;;;;5.13;2.60;;;;;;;10.17;73.58;101098.66;5047221;28;20071;-78
2022/11/06 07:35:37;;;;;;;8.43;2.35;;;;;;;10.19;73.76;101104.00;5075364;28;20132;-80
2022/11/06 07:38:06;;;;;;;7.13;2.47;;;;;;;10.20;73.76;101097.34;5063109;28;20133;-73
2022/11/06 07:40:36;;;;;;;7.53;2.40;;;;;;;10.25;73.47;101091.94;5052644;28;20143;-78
2022/11/06 07:43:06;;;;;;;9.15;2.88;;;;;;;10.27;73.64;101087.84;5055783;28;20037;-79
2022/11/06 07:45:32;;;;;;;6.57;2.38;;;;;;;10.31;73.43;101089.03;5059490;28;20123;-78
2022/11/06 07:47:58;;;;;;;7.43;2.50;;;;;;;10.33;73.68;101080.44;5042721;28;20033;-78
2022/11/06 07:50:24;;;;;;;6.60;2.88;;;;;;;10.34;73.48;101076.59;5038490;28;20025;-75
2022/11/06 07:52:49;;;;;;;7.55;2.25;;;;;;;10.38;73.47;101076.97;5049870;28;20029;-75
2022/11/06 07:55:14;;;;;;;7.20;2.75;;;;;;;10.37;73.65;101069.69;5050059;28;20032;-76
2022/11/06 07:57:40;;;;;;;7.07;2.42;;;;;;;10.35;73.16;101072.72;5063269;28;20037;-75
2022/11/06 08:00:06;;;;;;;7.40;2.60;;;;;;;10.38;72.85;101069.47;5071258;28;20029;-77
2022/11/06 08:02:31;;;;;;;7.75;2.20;;;;;;;10.39;73.42;101062.81;5043472;28;20071;-81
2022/11/06 08:04:56;;;;;;;8.63;2.58;;;;;;;10.42;73.75;101065.13;5037411;28;20032;-82
2022/11/06 08:07:22;;;;;;;8.82;2.47;;;;;;;10.43;73.33;101072.34;5063431;28;20064;-80
2022/11/06 08:09:47;;;;;;;8.27;2.47;;;;;;;10.43;73.43;101071.50;5046434;28;20029;-82
2022/11/06 08:12:13;;;;;;;7.50;2.38;;;;;;;10.44;73.65;101073.19;5053764;28;20063;-81
2022/11/06 08:14:39;;;;;;;5.63;2.40;;;;;;;10.45;73.38;101069.31;5035518;28;20035;-82
2022/11/06 08:17:04;;;;;;;6.82;2.10;;;;;;;10.48;73.35;101063.28;5036252;28;20108;-79
2022/11/06 08:19:29;;;;;;;6.22;2.13;;;;;;;10.49;73.28;101064.94;5039818;28;20048;-81
2022/11/06 08:21:55;;;;;;;5.35;2.60;;;;;;;10.49;73.24;101068.59;5046167;28;20676;-76
2022/11/06 08:24:20;;;;;;;3.75;2.05;;;;;;;10.51;73.17;101057.22;5044413;28;20073;-81
2022/11/06 08:26:45;;;;;;;5.82;1.90;;;;;;;10.50;73.53;101048.06;5040702;28;20432;-81
2022/11/06 08:29:11;;;;;;;3.72;1.92;;;;;;;10.52;73.27;101043.09;5045319;28;20041;-80
2022/11/06 08:31:36;;;;;;;4.90;2.17;;;;;;;10.55;73.29;101055.66;5049481;28;20024;-79
2022/11/06 08:34:01;;;;;;;8.50;2.70;;;;;;;10.57;73.02;101051.53;5074271;28;20032;-81
2022/11/06 08:36:27;;;;;;;7.15;2.20;;;;;;;10.59;72.90;101042.13;5054086;28;20033;-78
2022/11/06 08:38:52;;;;;;;7.03;2.33;;;;;;;10.57;72.96;101043.22;5048707;28;20138;-78
2022/11/06 08:41:17;;;;;;;6.63;1.98;;;;;;;10.62;72.94;101042.47;5047584;28;20044;-78
2022/11/06 08:43:42;;;;;;;7.75;2.95;;;;;;;10.65;72.61;101039.19;5048995;28;20049;-76
2022/11/06 08:46:08;;;;;;;6.18;2.38;;;;;;;10.69;72.62;101039.50;5048305;28;20558;-76
2022/11/06 08:48:34;;;;;;;4.45;1.95;;;;;;;10.71;72.68;101026.25;5042783;28;20060;-78
2022/11/06 08:51:00;;;;;;;6.18;1.88;;;;;;;10.74;72.52;101022.97;5055119;28;20021;-68
2022/11/06 08:53:25;;;;;;;10.40;2.28;;;;;;;10.77;72.26;101026.09;5047700;28;20034;-79
2022/11/06 08:55:53;;;;;;;8.50;2.30;;;;;;;10.79;72.20;101023.06;5054511;28;20036;-77
2022/11/06 08:58:19;;;;;;;6.82;2.20;;;;;;;10.84;72.01;101025.91;5054964;28;20052;-77
2022/11/06 09:00:44;;;;;;;5.43;2.53;;;;;;;10.86;71.72;101015.41;5054221;28;20049;-76
2022/11/06 09:03:13;;;;;;;5.18;2.00;;;;;;;10.89;71.85;101014.06;5067207;28;20060;-75
2022/11/06 09:05:40;;;;;;;3.80;1.77;;;;;;;10.91;71.61;101014.66;5034959;28;20030;-78
2022/11/06 09:08:05;;;;;;;6.03;2.22;;;;;;;10.95;71.62;101002.78;5033779;28;20034;-77
2022/11/06 09:10:31;;;;;;;4.63;2.00;;;;;;;10.97;71.67;101002.53;5056868;28;20025;-77
2022/11/06 09:12:59;;;;;;;6.53;2.20;;;;;;;10.98;71.28;100999.50;5048132;28;20029;-76
2022/11/06 09:15:25;;;;;;;4.85;1.90;;;;;;;10.97;71.35;101002.53;5051981;28;20033;-75
2022/11/06 09:17:51;;;;;;;6.10;2.00;;;;;;;10.96;71.51;100989.72;5034523;28;20429;-75
2022/11/06 09:20:18;;;;;;;6.97;2.20;;;;;;;10.99;71.32;100989.22;5033820;28;20053;-76
2022/11/06 09:22:45;;;;;;;6.85;1.92;;;;;;;11.01;71.49;100987.91;5033774;28;20115;-75
2022/11/06 09:25:11;;;;;;;6.82;2.25;;;;;;;11.03;70.99;100979.31;5072525;28;20422;-76
2022/11/06 09:27:47;;;;;;;7.47;2.60;;;;;;;11.07;70.98;100981.31;5071942;28;20127;-76
2022/11/06 09:30:16;;;;;;;7.82;1.92;;;;;;;11.20;70.45;100971.81;5053739;28;20559;-75
2022/11/06 09:32:47;;;;;;;6.75;2.10;;;;;;;11.32;70.19;100957.81;5053180;28;20514;-75
2022/11/06 09:35:12;;;;;;;6.97;2.28;;;;;;;11.36;69.66;100950.66;5053363;28;20464;-75
2022/11/06 09:37:38;;;;;;;7.38;2.22;;;;;;;11.44;69.17;100955.75;5051439;28;20128;-71
2022/11/06 09:40:03;;;;;;;4.35;2.03;;;;;;;11.46;69.21;100956.34;5053576;28;20072;-75
2022/11/06 09:42:55;;;;;;;3.38;2.10;;;;;;;11.71;71.92;100961.41;5053061;28;20436;-75
2022/11/06 09:45:25;;;;;;;3.77;1.90;;;;;;;11.65;69.31;100962.44;5053828;28;20437;-75
2022/11/06 09:48:06;;;;;;;6.07;2.08;;;;;;;11.61;69.35;100960.44;5053559;28;20431;-75
2022/11/06 09:50:36;;;;;;;7.28;2.25;;;;;;;11.62;69.29;100957.38;5052553;28;20028;-74
2022/11/06 09:53:31;;;;;;;10.70;2.47;;;;;;;11.63;68.80;100956.31;5069533;28;20482;-70
2022/11/06 09:56:00;;;;;;;7.32;2.15;;;;;;;11.61;68.89;100958.50;5046634;28;20033;-72
2022/11/06 09:58:32;;;;;;;6.95;1.88;;;;;;;11.57;68.61;100951.75;5036482;28;20087;-73
2022/11/06 10:01:05;;;;;;;6.40;2.00;;;;;;;11.53;69.24;100951.44;5039896;28;20499;-73
2022/11/06 10:03:57;;;;;;;7.25;1.90;;;;;;;11.56;69.31;100952.88;5032582;28;20022;-73
2022/11/06 10:06:30;;;;;;;6.55;1.90;;;;;;;11.59;69.54;100951.50;5039332;28;20029;-72
2022/11/06 10:09:00;;;;;;;4.65;2.13;;;;;;;11.71;68.72;100941.94;5036165;28;20405;-73
2022/11/06 10:11:43;;;;;;;4.63;1.70;;;;;;;11.93;69.07;100950.31;5043220;28;20155;-74
2022/11/06 10:14:35;;;;;;;7.43;1.80;;;;;;;12.03;68.22;100949.59;5037722;28;20112;-74
2022/11/06 10:17:19;;;;;;;8.80;1.73;;;;;;;12.09;67.68;100947.69;5049018;28;20030;-73
2022/11/06 10:20:09;;;;;;;9.35;2.50;;;;;;;12.07;67.32;100942.41;5053076;28;20048;-74
2022/11/06 10:23:04;;;;;;;5.03;1.95;;;;;;;12.00;67.03;100933.41;5053432;28;20037;-76
2022/11/06 10:25:42;;;;;;;5.72;1.80;;;;;;;11.91;67.48;100941.41;5033963;28;20048;-75
2022/11/06 10:28:20;;;;;;;9.13;1.90;;;;;;;11.83;66.95;100929.81;5047957;28;20821;-77
2022/11/06 10:31:27;;;;;;;7.32;2.08;;;;;;;11.78;67.78;100936.19;5055967;28;20415;-74
2022/11/06 10:34:20;;;;;;;6.10;1.80;;;;;;;11.75;67.90;100917.22;5043637;28;20033;-75
2022/11/06 10:36:53;;;;;;;6.15;2.33;;;;;;;11.72;67.50;100921.38;5043996;28;20041;-75
2022/11/06 10:39:29;;;;;;;5.60;1.80;;;;;;;11.73;68.07;100923.06;5042735;28;20029;-74
2022/11/06 10:42:15;;;;;;;6.65;2.20;;;;;;;11.78;68.08;100908.38;5037114;28;20111;-75
2022/11/06 10:44:44;;;;;;;7.05;1.77;;;;;;;11.79;67.62;100899.78;5051425;28;20482;-73
2022/11/06 10:47:21;;;;;;;9.60;1.95;;;;;;;11.85;67.92;100909.03;5042704;28;20039;-71
2022/11/06 10:49:48;;;;;;;5.57;1.98;;;;;;;11.89;67.45;100893.50;5046733;28;20025;-72
2022/11/06 10:52:38;;;;;;;9.57;2.00;;;;;;;11.89;67.49;100890.72;5036476;28;20493;-72
2022/11/06 10:55:17;;;;;;;6.78;2.00;;;;;;;11.92;67.71;100873.53;5032889;28;20091;-77
2022/11/06 10:57:46;;;;;;;6.10;1.70;;;;;;;11.94;66.75;100865.75;5045055;28;20051;-76
2022/11/06 11:00:14;;;;;;;6.57;2.30;;;;;;;11.99;66.64;100876.94;5055146;28;20045;-80
2022/11/06 11:02:45;;;;;;;7.90;1.95;;;;;;;12.04;66.06;100873.38;5051426;28;20044;-75
2022/11/06 11:05:17;;;;;;;7.03;2.17;;;;;;;12.05;66.83;100858.34;5049496;28;20025;-72
2022/11/06 11:07:44;;;;;;;8.05;2.28;;;;;;;12.06;66.21;100861.97;5040984;28;20063;-69
2022/11/06 11:10:21;;;;;;;5.20;2.30;;;;;;;12.08;66.57;100840.31;5046548;28;20029;-71
2022/11/06 11:12:48;;;;;;;5.25;2.10;;;;;;;12.09;66.44;100844.75;5038083;28;20115;-69
2022/11/06 11:15:17;;;;;;;4.82;1.73;;;;;;;12.07;66.09;100845.03;5040534;28;20033;-71
2022/11/06 11:18:11;;;;;;;7.78;2.15;;;;;;;12.09;66.37;100848.38;5041203;28;20040;-76
2022/11/06 11:20:39;;;;;;;8.90;2.13;;;;;;;12.04;65.83;100851.13;5048897;28;20028;-73
2022/11/06 11:23:13;;;;;;;6.53;1.98;;;;;;;12.04;66.23;100851.97;5052598;28;20028;-73
2022/11/06 11:25:40;;;;;;;5.82;1.90;;;;;;;12.02;65.79;100837.50;5044244;28;20040;-71
2022/11/06 11:28:05;;;;;;;7.50;2.10;;;;;;;12.00;65.84;100834.13;5048924;28;20108;-73
2022/11/06 11:30:30;;;;;;;8.77;2.25;;;;;;;11.99;65.64;100834.38;5052604;28;20952;-71
2022/11/06 11:32:56;;;;;;;4.72;1.70;;;;;;;11.96;65.28;100821.84;5035346;28;20048;-72
2022/11/06 11:35:29;;;;;;;7.22;1.77;;;;;;;11.96;65.46;100821.84;5040058;28;20033;-80
2022/11/06 11:38:17;;;;;;;5.78;2.00;;;;;;;11.98;65.70;100818.78;5038332;28;20037;-77
2022/11/06 11:40:43;;;;;;;8.15;2.10;;;;;;;11.93;65.03;100816.78;5049512;28;20067;-73
2022/11/06 11:43:29;;;;;;;6.10;1.80;;;;;;;11.93;65.31;100822.34;5038455;28;20021;-77
2022/11/06 11:46:03;;;;;;;6.20;1.75;;;;;;;11.86;64.45;100810.59;5032699;28;20053;-80
2022/11/06 11:48:50;;;;;;;11.65;2.20;;;;;;;11.89;65.07;100803.69;5036499;28;20029;-79
2022/11/06 11:51:33;;;;;;;5.80;1.60;;;;;;;11.87;64.78;100817.88;5046309;28;20037;-79
2022/11/06 11:54:01;;;;;;;6.20;2.08;;;;;;;11.88;64.70;100808.41;5033751;28;20048;-73